Time;durP1;ratioP1;P1;durP2;ratioP2;P2;SDS_P1;SDS_P2;PMS_P1;PMS_P2;Temp;Humidity;BMP_temperature;BMP_pressure;BME280_temperature;BME280_humidity;BME280_pressure;Samples;Min_cycle;Max_cycle;Signal;HPM_P1;HPM_P2
2023/11/09 00:01:17;;;;;;;11.80;5.70;;;;;;;10.07;64.14;99025.13;234158;216;149415;-57
2023/11/09 00:06:22;;;;;;;11.30;5.90;;;;;;;10.04;64.12;99022.64;234027;216;139701;-58
2023/11/09 00:11:25;;;;;;;10.20;6.40;;;;;;;10.01;64.17;99026.20;234096;216;137564;-60
2023/11/09 00:16:28;;;;;;;10.20;5.30;;;;;;;9.93;64.21;99020.66;234242;216;151007;-58
2023/11/09 00:21:32;;;;;;;15.50;6.00;;;;;;;9.85;64.42;99020.08;234062;216;139522;-57
2023/11/09 00:26:35;;;;;;;13.70;6.40;;;;;;;9.81;64.48;99020.34;234132;216;138416;-56
2023/11/09 00:31:38;;;;;;;10.70;6.10;;;;;;;9.77;64.57;99023.77;234140;216;148989;-57
2023/11/09 00:36:42;;;;;;;12.00;7.00;;;;;;;9.72;64.67;99019.98;234160;216;139033;-56
2023/11/09 00:41:46;;;;;;;10.00;6.00;;;;;;;9.69;64.87;99019.27;234106;215;137751;-57
2023/11/09 00:46:49;;;;;;;12.70;7.60;;;;;;;9.64;64.97;99025.02;234186;216;150153;-57
2023/11/09 00:51:52;;;;;;;13.80;7.80;;;;;;;9.59;64.93;99022.68;234209;216;141121;-57
2023/11/09 00:56:55;;;;;;;13.30;7.30;;;;;;;9.56;65.08;99021.98;234099;216;138024;-57
2023/11/09 01:01:59;;;;;;;10.60;7.00;;;;;;;9.48;65.09;99019.05;234149;216;149385;-58
2023/11/09 01:07:02;;;;;;;11.30;7.10;;;;;;;9.23;65.34;99019.95;234061;216;139952;-58
2023/11/09 01:12:06;;;;;;;13.40;7.40;;;;;;;9.03;65.84;99020.90;234169;216;137905;-58
2023/11/09 01:17:11;;;;;;;13.60;6.90;;;;;;;8.88;66.32;99021.02;234115;216;150217;-57
2023/11/09 01:22:14;;;;;;;10.90;7.50;;;;;;;8.80;66.60;99014.95;234249;216;138610;-58
2023/11/09 01:27:18;;;;;;;11.90;7.50;;;;;;;8.74;66.76;99011.19;234268;215;138106;-58
2023/11/09 01:32:21;;;;;;;13.30;7.70;;;;;;;8.68;66.73;99014.55;234252;216;151422;-58
2023/11/09 01:37:24;;;;;;;14.90;7.90;;;;;;;8.55;67.05;99010.64;234176;216;139449;-58
2023/11/09 01:42:27;;;;;;;12.30;7.70;;;;;;;8.47;67.35;99010.70;234161;216;137077;-57
2023/11/09 01:47:32;;;;;;;13.20;8.00;;;;;;;8.41;67.37;99009.25;234258;216;149299;-57
2023/11/09 01:52:36;;;;;;;16.40;8.40;;;;;;;8.29;67.44;99001.05;234295;216;138916;-58
2023/11/09 01:57:41;;;;;;;15.50;8.10;;;;;;;8.18;67.77;99003.94;234260;216;138312;-57
2023/11/09 02:02:48;;;;;;;14.70;8.80;;;;;;;8.12;68.09;99004.08;234261;215;149502;-57
2023/11/09 02:07:53;;;;;;;14.80;9.00;;;;;;;8.04;68.03;99006.59;234265;216;139805;-56
2023/11/09 02:12:58;;;;;;;14.70;8.50;;;;;;;7.95;68.23;99003.36;234291;216;153760;-57
2023/11/09 02:18:02;;;;;;;12.80;7.70;;;;;;;7.84;68.33;99000.73;234219;215;150424;-57
2023/11/09 02:23:08;;;;;;;15.10;7.70;;;;;;;7.75;68.58;99004.55;234295;216;139317;-57
2023/11/09 02:28:13;;;;;;;12.80;8.00;;;;;;;7.73;68.64;99009.23;234361;216;138992;-56
2023/11/09 02:33:16;;;;;;;12.50;8.00;;;;;;;7.67;68.76;99011.54;234209;215;150489;-57
2023/11/09 02:38:19;;;;;;;11.30;7.80;;;;;;;7.64;68.93;99005.13;234202;215;139034;-56
2023/11/09 02:43:23;;;;;;;11.90;7.60;;;;;;;7.67;68.86;99003.89;234217;215;137842;-57
2023/11/09 02:48:26;;;;;;;13.40;7.80;;;;;;;7.69;68.79;99003.11;234291;215;149406;-56
2023/11/09 02:53:29;;;;;;;12.30;7.60;;;;;;;7.61;68.80;99004.59;234015;216;138973;-57
2023/11/09 02:58:34;;;;;;;12.60;8.00;;;;;;;7.55;68.71;99001.71;234410;216;137813;-57
2023/11/09 03:03:37;;;;;;;12.50;7.90;;;;;;;7.49;68.66;98996.90;234138;215;149891;-58
2023/11/09 03:08:41;;;;;;;14.20;7.70;;;;;;;7.40;68.62;98996.98;234160;216;138903;-58
2023/11/09 03:13:44;;;;;;;12.40;8.00;;;;;;;7.31;68.68;98993.71;234205;216;138398;-56
2023/11/09 03:18:48;;;;;;;10.60;7.50;;;;;;;7.23;68.70;98990.06;234192;215;150082;-56
2023/11/09 03:23:52;;;;;;;12.10;7.80;;;;;;;7.14;68.83;98989.63;234218;215;139541;-57
2023/11/09 03:28:56;;;;;;;12.90;7.40;;;;;;;7.04;68.87;98987.79;234160;216;138108;-56
2023/11/09 03:33:59;;;;;;;11.60;7.20;;;;;;;7.05;69.03;98978.79;234371;215;150426;-56
2023/11/09 03:39:03;;;;;;;14.90;8.30;;;;;;;7.11;68.89;98982.73;234229;216;138959;-57
2023/11/09 03:44:06;;;;;;;10.50;7.60;;;;;;;7.07;68.62;98978.28;234230;216;137205;-57
2023/11/09 03:49:12;;;;;;;12.90;7.90;;;;;;;7.05;68.92;98981.23;234194;216;150006;-57
2023/11/09 03:54:15;;;;;;;11.70;8.30;;;;;;;7.03;68.80;98977.64;234165;216;139711;-57
2023/11/09 03:59:18;;;;;;;11.90;7.50;;;;;;;6.96;68.82;98980.25;234146;216;137812;-58
2023/11/09 04:04:23;;;;;;;13.10;8.40;;;;;;;6.89;68.75;98979.55;234290;216;150421;-58
2023/11/09 04:09:26;;;;;;;99.50;69.00;;;;;;;6.90;69.95;98980.20;234266;216;138718;-56
2023/11/09 04:14:29;;;;;;;17.30;10.70;;;;;;;6.88;69.14;98977.46;234175;215;139280;-57
2023/11/09 04:19:33;;;;;;;67.70;48.70;;;;;;;6.84;69.16;98975.19;234320;215;149868;-56
2023/11/09 04:24:36;;;;;;;15.80;9.50;;;;;;;6.84;69.12;98976.59;234134;215;139108;-57
2023/11/09 04:29:41;;;;;;;13.70;8.20;;;;;;;6.75;68.58;98980.55;234222;215;137609;-58
2023/11/09 04:34:46;;;;;;;13.90;9.00;;;;;;;6.60;68.72;98986.90;233934;216;150507;-58
2023/11/09 04:39:51;;;;;;;16.10;9.00;;;;;;;6.49;69.07;98981.98;234239;216;138634;-58
2023/11/09 04:44:56;;;;;;;;;;;;;;;6.46;69.08;98974.17;234304;215;141271;-57
2023/11/09 04:50:01;;;;;;;15.10;9.10;;;;;;;6.45;68.96;98967.52;234362;215;150230;-58
2023/11/09 04:55:14;;;;;;;14.00;9.30;;;;;;;6.46;68.95;98969.39;234290;215;138662;-57
2023/11/09 05:11:01;;;;;;;15.40;10.00;;;;;;;6.45;69.12;98964.53;234150;216;139132;-58
2023/11/09 05:16:04;;;;;;;13.50;9.60;;;;;;;6.34;68.93;98963.09;234362;215;138065;-57
2023/11/09 05:21:08;;;;;;;14.80;9.80;;;;;;;6.27;68.91;98961.48;234190;215;150477;-57
2023/11/09 05:26:11;;;;;;;14.20;10.10;;;;;;;6.19;69.04;98957.95;234269;215;139922;-57
2023/11/09 05:31:14;;;;;;;16.20;9.80;;;;;;;6.10;68.89;98954.48;234264;216;138459;-57
2023/11/09 05:36:17;;;;;;;13.50;10.10;;;;;;;6.02;68.93;98957.33;234287;215;149564;-59
2023/11/09 05:41:20;;;;;;;14.60;9.20;;;;;;;5.94;68.85;98954.66;234228;216;139514;-58
2023/11/09 05:46:23;;;;;;;14.90;8.90;;;;;;;5.85;69.10;98959.27;234303;214;138068;-57
2023/11/09 05:51:28;;;;;;;12.10;8.50;;;;;;;5.79;69.07;98954.61;234385;216;149256;-57
2023/11/09 05:56:31;;;;;;;15.30;8.90;;;;;;;5.82;69.28;98951.99;234236;215;138712;-57
2023/11/09 06:01:35;;;;;;;13.00;9.00;;;;;;;5.86;69.16;98950.78;234247;216;139589;-57
2023/11/09 06:06:39;;;;;;;14.60;8.20;;;;;;;5.87;69.40;98954.05;234221;216;149554;-58
2023/11/09 06:11:46;;;;;;;13.10;8.60;;;;;;;5.90;69.49;98960.45;234235;215;140008;-56
2023/11/09 06:16:49;;;;;;;16.60;8.40;;;;;;;5.97;69.63;98958.08;234387;215;136885;-57
2023/11/09 06:21:53;;;;;;;12.10;8.10;;;;;;;5.99;69.65;98954.45;234385;215;151643;-58
2023/11/09 06:26:57;;;;;;;12.60;8.00;;;;;;;5.96;69.91;98954.25;234258;215;139044;-57
2023/11/09 06:32:00;;;;;;;17.60;9.20;;;;;;;5.92;70.14;98952.98;234212;215;139200;-57
2023/11/09 06:37:03;;;;;;;15.60;8.80;;;;;;;5.92;70.58;98947.86;234214;216;151496;-58
2023/11/09 06:42:10;;;;;;;13.40;8.50;;;;;;;5.95;70.69;98945.85;234188;216;138798;-58
2023/11/09 06:47:15;;;;;;;16.10;8.10;;;;;;;6.00;71.02;98944.05;234248;216;138619;-58
2023/11/09 06:52:19;;;;;;;11.50;6.10;;;;;;;6.08;71.16;98943.64;234320;216;150557;-58
2023/11/09 06:57:22;;;;;;;17.80;8.10;;;;;;;6.22;71.30;98943.55;234144;215;139699;-58
2023/11/09 07:02:26;;;;;;;10.80;7.10;;;;;;;6.38;71.42;98939.98;234269;216;138491;-57
2023/11/09 07:07:30;;;;;;;15.50;6.10;;;;;;;6.54;71.40;98936.80;234236;216;150094;-57
2023/11/09 07:12:34;;;;;;;10.30;6.00;;;;;;;6.67;71.12;98933.70;234216;216;139995;-57
2023/11/09 07:17:37;;;;;;;10.20;5.70;;;;;;;6.77;71.17;98936.91;234195;216;139621;-56
2023/11/09 07:22:40;;;;;;;11.30;5.70;;;;;;;6.84;71.04;98936.73;234325;215;150457;-56
2023/11/09 07:27:44;;;;;;;12.20;6.90;;;;;;;6.94;71.11;98932.41;234292;215;139167;-57
2023/11/09 07:32:47;;;;;;;10.00;6.10;;;;;;;7.04;71.18;98938.79;234207;215;136872;-57
2023/11/09 07:37:51;;;;;;;12.10;5.70;;;;;;;7.14;71.25;98936.35;234223;215;149621;-59
2023/11/09 07:42:55;;;;;;;10.50;5.80;;;;;;;7.25;71.16;98934.04;234142;216;139010;-57
2023/11/09 07:47:58;;;;;;;14.60;5.90;;;;;;;7.42;71.34;98929.45;233625;215;138798;-56
2023/11/09 07:53:02;;;;;;;12.80;6.10;;;;;;;7.67;71.28;98925.88;234129;216;150015;-58
2023/11/09 07:58:05;;;;;;;12.70;5.70;;;;;;;7.94;71.02;98915.10;234358;216;138719;-56
2023/11/09 08:03:09;;;;;;;13.50;6.30;;;;;;;8.21;70.78;98908.52;234251;216;138521;-55
2023/11/09 08:08:14;;;;;;;20.40;6.30;;;;;;;8.43;70.47;98901.83;234166;216;149363;-56
2023/11/09 08:13:17;;;;;;;23.50;11.00;;;;;;;8.66;70.05;98898.11;234219;216;138693;-56
2023/11/09 08:18:20;;;;;;;14.10;8.60;;;;;;;8.86;69.79;98888.98;234225;216;139824;-57
2023/11/09 08:23:23;;;;;;;15.10;6.60;;;;;;;9.07;69.53;98888.31;234216;216;149491;-57
2023/11/09 08:28:26;;;;;;;7.50;3.30;;;;;;;9.27;68.98;98877.98;234327;216;139141;-58
2023/11/09 08:33:30;;;;;;;7.30;2.90;;;;;;;9.52;66.86;98867.73;234244;216;138244;-57
2023/11/09 08:38:33;;;;;;;5.40;2.50;;;;;;;9.89;65.76;98861.77;233854;216;149483;-57
2023/11/09 08:43:39;;;;;;;5.20;2.70;;;;;;;10.20;63.93;98859.29;234210;216;138881;-58
2023/11/09 08:48:42;;;;;;;6.40;2.60;;;;;;;10.48;62.91;98857.88;234250;216;138636;-57
2023/11/09 08:53:46;;;;;;;5.60;2.10;;;;;;;10.72;61.90;98855.08;234220;215;150289;-59
2023/11/09 08:58:54;;;;;;;6.40;2.20;;;;;;;10.92;61.16;98852.84;234157;216;138905;-58
2023/11/09 09:03:59;;;;;;;10.80;2.60;;;;;;;11.13;60.59;98848.61;234353;216;138785;-58
2023/11/09 09:09:04;;;;;;;10.80;2.00;;;;;;;11.31;59.09;98840.49;234175;216;149174;-59
2023/11/09 09:14:08;;;;;;;;;;;;;;;11.50;57.70;98839.58;234205;216;138834;-57
2023/11/09 09:19:12;;;;;;;4.60;1.60;;;;;;;11.66;56.18;98838.06;234306;216;133405;-58
2023/11/09 09:24:16;;;;;;;4.80;1.40;;;;;;;11.81;54.28;98831.38;234277;215;149393;-59
2023/11/09 09:29:19;;;;;;;4.40;1.60;;;;;;;11.95;53.14;98818.96;234105;216;138851;-59
2023/11/09 09:34:25;;;;;;;5.40;1.90;;;;;;;12.13;52.50;98810.55;234342;216;138345;-58
2023/11/09 09:39:29;;;;;;;4.20;1.50;;;;;;;12.29;51.88;98805.55;234179;216;149080;-65
2023/11/09 09:44:33;;;;;;;2.70;1.20;;;;;;;12.41;50.82;98799.83;234074;215;140220;-64
2023/11/09 09:49:37;;;;;;;6.00;1.40;;;;;;;12.52;50.19;98800.45;234224;215;137827;-62
2023/11/09 09:54:41;;;;;;;2.20;1.20;;;;;;;12.63;50.17;98793.58;234194;215;149049;-62
2023/11/09 09:59:45;;;;;;;6.90;1.90;;;;;;;12.76;49.91;98791.89;234167;216;140248;-62
2023/11/09 10:04:48;;;;;;;5.00;1.50;;;;;;;12.91;49.37;98785.07;234277;216;138004;-62
2023/11/09 10:09:53;;;;;;;3.60;1.50;;;;;;;13.06;48.75;98777.54;234145;215;149177;-62
2023/11/09 10:14:56;;;;;;;3.80;1.60;;;;;;;13.17;47.55;98775.98;234073;216;138762;-63
2023/11/09 10:20:00;;;;;;;4.80;1.60;;;;;;;13.29;47.63;98769.18;234152;216;138551;-63
2023/11/09 10:25:04;;;;;;;6.00;2.50;;;;;;;13.38;46.67;98761.02;233999;215;151235;-64
2023/11/09 10:30:08;;;;;;;4.20;1.70;;;;;;;13.47;46.97;98754.61;233980;215;139434;-62
2023/11/09 10:35:13;;;;;;;3.70;1.90;;;;;;;13.64;46.88;98746.11;234118;215;140569;-63
2023/11/09 10:40:19;;;;;;;4.30;1.70;;;;;;;13.80;46.43;98740.40;234301;215;149928;-63
2023/11/09 10:45:25;;;;;;;2.90;1.80;;;;;;;13.99;45.88;98728.31;234024;216;140383;-63
2023/11/09 10:50:28;;;;;;;2.40;1.30;;;;;;;14.19;46.10;98716.93;234083;216;138439;-64
2023/11/09 10:55:33;;;;;;;2.30;1.40;;;;;;;14.33;45.53;98712.52;234030;216;149548;-63
2023/11/09 11:00:42;;;;;;;4.20;1.70;;;;;;;14.43;45.19;98714.35;234055;216;138954;-66
2023/11/09 11:05:50;;;;;;;3.20;1.80;;;;;;;14.45;45.05;98711.56;234033;215;139125;-65
2023/11/09 11:10:57;;;;;;;4.30;1.70;;;;;;;14.46;44.80;98713.43;234023;216;149769;-64
2023/11/09 11:16:18;;;;;;;;;;;;;;;14.53;44.57;98708.95;233987;216;140382;-63
2023/11/09 11:21:52;;;;;;;2.60;1.40;;;;;;;14.62;44.05;98704.95;234129;216;133791;-64
2023/11/09 11:27:39;;;;;;;5.70;1.90;;;;;;;14.75;43.85;98695.16;234050;215;150390;-64
2023/11/09 11:32:47;;;;;;;5.90;1.50;;;;;;;14.99;43.51;98683.61;234002;215;138659;-63
2023/11/09 11:38:04;;;;;;;3.80;1.90;;;;;;;15.12;43.11;98676.93;234003;216;137524;-63
2023/11/09 11:43:09;;;;;;;15.20;9.90;;;;;;;15.24;43.25;98673.72;234066;215;150157;-65
2023/11/09 11:48:30;;;;;;;7.30;2.30;;;;;;;15.40;42.95;98665.04;233956;215;139541;-63
2023/11/09 11:53:34;;;;;;;3.00;1.40;;;;;;;15.43;42.09;98659.92;234103;215;138066;-64
2023/11/09 11:58:46;;;;;;;4.30;1.20;;;;;;;15.43;41.88;98654.05;234171;216;149529;-65
2023/11/09 12:03:53;;;;;;;2.20;1.40;;;;;;;15.43;41.51;98649.44;234016;216;139753;-66
2023/11/09 12:08:58;;;;;;;5.60;1.50;;;;;;;15.43;41.58;98641.52;234042;216;138205;-66
2023/11/09 12:14:04;;;;;;;5.60;1.70;;;;;;;15.44;42.04;98635.56;233989;215;150344;-66
2023/11/09 12:19:11;;;;;;;4.20;1.30;;;;;;;15.37;41.52;98631.48;234179;216;142922;-65
2023/11/09 12:24:21;;;;;;;6.10;1.30;;;;;;;15.28;41.74;98628.68;234097;216;138069;-65
2023/11/09 12:29:29;;;;;;;5.40;1.50;;;;;;;15.21;41.98;98621.51;234043;215;150264;-66
2023/11/09 12:34:35;;;;;;;4.00;1.20;;;;;;;15.17;41.82;98615.96;234106;216;138890;-66
2023/11/09 12:39:39;;;;;;;4.00;1.80;;;;;;;15.11;41.57;98609.52;234028;216;138166;-66
2023/11/09 12:44:43;;;;;;;8.40;1.70;;;;;;;15.08;41.97;98604.03;233971;215;149389;-63
2023/11/09 12:49:51;;;;;;;5.00;1.50;;;;;;;15.08;42.13;98594.77;234052;215;138808;-63
2023/11/09 12:54:55;;;;;;;5.30;1.60;;;;;;;15.06;42.42;98589.59;234028;216;138140;-65
2023/11/09 13:00:03;;;;;;;5.80;1.90;;;;;;;15.09;42.79;98585.20;234102;215;149366;-67
2023/11/09 13:05:09;;;;;;;6.50;1.70;;;;;;;15.14;42.89;98578.83;234062;215;139320;-65
2023/11/09 13:10:19;;;;;;;;;;;;;;;15.21;42.96;98584.64;234184;216;138735;-64
2023/11/09 13:15:38;;;;;;;10.10;1.60;;;;;;;15.25;43.05;98571.06;234052;215;150158;-65
2023/11/09 13:20:47;;;;;;;8.30;1.80;;;;;;;15.35;43.26;98570.59;234057;215;138673;-65
2023/11/09 13:25:53;;;;;;;7.20;1.80;;;;;;;15.44;42.85;98565.14;234064;215;137270;-62
2023/11/09 13:31:17;;;;;;;4.10;1.30;;;;;;;15.52;42.81;98559.17;234032;216;151728;-68
2023/11/09 13:36:40;;;;;;;7.50;2.10;;;;;;;15.50;41.86;98552.20;234039;216;140272;-64
2023/11/09 13:41:45;;;;;;;6.00;1.60;;;;;;;15.49;41.98;98550.38;234040;216;137602;-66
2023/11/09 13:46:48;;;;;;;4.30;1.70;;;;;;;15.40;41.98;98556.48;234147;215;150045;-66
2023/11/09 13:52:02;;;;;;;5.60;1.40;;;;;;;15.30;42.21;98553.30;233948;215;139328;-65
2023/11/09 14:02:19;;;;;;;3.10;1.30;;;;;;;15.12;42.45;98539.39;234108;216;149143;-67
2023/11/09 14:07:31;;;;;;;4.80;1.50;;;;;;;15.07;42.62;98536.43;233972;216;139494;-64
2023/11/09 14:17:47;;;;;;;7.20;1.70;;;;;;;14.94;42.34;98526.36;234194;215;149909;-67
2023/11/09 14:22:50;;;;;;;3.40;1.20;;;;;;;14.87;42.20;98531.17;234252;215;138658;-67
2023/11/09 14:27:55;;;;;;;541.30;407.80;;;;;;;14.79;42.47;98521.70;234047;216;138157;-66
2023/11/09 14:33:03;;;;;;;24.80;13.20;;;;;;;14.79;43.39;98516.90;234014;216;150084;-66
2023/11/09 14:38:07;;;;;;;6.80;2.00;;;;;;;14.74;42.98;98518.95;234069;216;139081;-65
2023/11/09 14:43:13;;;;;;;5.80;1.70;;;;;;;14.68;42.98;98518.40;234049;215;138285;-65
2023/11/09 14:48:18;;;;;;;14.90;1.90;;;;;;;14.57;42.92;98516.68;234045;215;150820;-65
2023/11/09 14:53:23;;;;;;;2.30;1.20;;;;;;;14.50;43.05;98517.48;234061;215;139329;-66
2023/11/09 14:58:42;;;;;;;4.20;1.40;;;;;;;14.44;42.71;98514.02;234228;215;137425;-66
2023/11/09 15:03:46;;;;;;;6.70;2.10;;;;;;;14.40;43.08;98515.05;234004;216;149165;-65
2023/11/09 15:08:49;;;;;;;6.70;1.80;;;;;;;14.39;43.55;98513.21;234081;216;140421;-66
2023/11/09 15:13:55;;;;;;;6.40;2.00;;;;;;;14.25;44.21;98509.80;234046;216;138849;-67
2023/11/09 15:18:59;;;;;;;6.90;2.10;;;;;;;14.02;45.17;98511.52;233989;215;149460;-65
2023/11/09 15:24:05;;;;;;;7.50;2.20;;;;;;;13.75;45.92;98511.30;234091;216;140453;-65
2023/11/09 15:29:08;;;;;;;11.50;2.50;;;;;;;13.63;45.45;98503.63;234014;215;137069;-65
2023/11/09 15:34:15;;;;;;;8.50;2.30;;;;;;;13.63;45.40;98509.85;234146;215;150365;-66
2023/11/09 15:39:19;;;;;;;8.50;2.20;;;;;;;13.62;44.95;98511.72;233991;215;139112;-65
2023/11/09 15:44:42;;;;;;;252.10;107.00;;;;;;;13.63;45.57;98510.90;234051;216;137260;-65
2023/11/09 15:49:46;;;;;;;25.80;9.70;;;;;;;13.60;44.03;98509.00;234003;216;151398;-65
2023/11/09 15:54:52;;;;;;;13.20;3.10;;;;;;;13.54;43.66;98509.70;233997;216;141115;-67
2023/11/09 15:59:57;;;;;;;;;;;;;;;13.53;43.86;98514.20;234084;216;138568;-67
2023/11/09 16:05:00;;;;;;;6.50;2.50;;;;;;;13.51;43.60;98516.55;234177;216;150570;-67
2023/11/09 16:10:19;;;;;;;12.10;2.60;;;;;;;13.44;43.55;98521.02;234123;216;138666;-67
2023/11/09 16:15:24;;;;;;;19.60;4.10;;;;;;;13.33;44.41;98527.09;234038;216;137462;-64
2023/11/09 16:20:34;;;;;;;19.20;3.60;;;;;;;13.12;45.75;98534.27;234030;216;150872;-65
2023/11/09 16:25:43;;;;;;;14.70;3.90;;;;;;;12.89;46.85;98535.45;233999;217;138727;-66
2023/11/09 16:30:47;;;;;;;24.60;3.70;;;;;;;12.65;47.82;98540.69;234078;216;137788;-65
2023/11/09 16:36:21;;;;;;;21.80;3.40;;;;;;;12.42;48.47;98544.13;234026;213;148072;-57
2023/11/09 16:41:25;;;;;;;52.60;6.20;;;;;;;12.22;48.57;98541.36;234171;213;140379;-61
2023/11/09 16:46:28;;;;;;;35.80;4.70;;;;;;;12.03;49.92;98545.98;234246;208;138434;-60
2023/11/09 16:51:32;;;;;;;27.80;4.20;;;;;;;11.90;49.97;98548.60;234191;213;149319;-60
2023/11/09 16:56:35;;;;;;;34.60;4.90;;;;;;;11.75;51.06;98556.08;234183;215;139819;-60
2023/11/09 17:01:38;;;;;;;31.90;5.30;;;;;;;11.58;52.01;98557.55;234215;214;138864;-59
2023/11/09 17:06:41;;;;;;;42.30;6.10;;;;;;;11.44;52.23;98562.48;234178;213;149276;-60
2023/11/09 17:11:45;;;;;;;34.10;5.90;;;;;;;11.33;52.69;98551.70;234080;215;139081;-59
2023/11/09 17:16:48;;;;;;;51.40;6.50;;;;;;;11.24;53.51;98549.20;234122;214;138268;-60
2023/11/09 17:21:51;;;;;;;41.30;8.40;;;;;;;11.11;53.95;98541.77;234186;213;149874;-59
2023/11/09 17:26:56;;;;;;;74.60;11.40;;;;;;;11.01;54.20;98536.99;234054;213;138757;-59
2023/11/09 17:31:59;;;;;;;54.70;9.00;;;;;;;10.93;54.32;98532.82;234247;209;137508;-58
2023/11/09 17:37:03;;;;;;;288.00;156.10;;;;;;;10.86;55.13;98533.98;234119;214;149989;-58
2023/11/09 17:42:07;;;;;;;37.50;9.30;;;;;;;10.89;54.64;98532.88;234080;214;139509;-58
2023/11/09 17:47:13;;;;;;;42.70;7.50;;;;;;;10.89;54.34;98541.02;234041;215;139277;-58
2023/11/09 17:52:16;;;;;;;31.10;6.20;;;;;;;10.88;54.06;98545.09;234187;214;149622;-59
2023/11/09 17:57:19;;;;;;;40.00;6.60;;;;;;;10.88;54.16;98540.08;234063;213;138819;-58
2023/11/09 18:02:22;;;;;;;29.70;6.70;;;;;;;10.84;54.79;98545.34;234130;209;137307;-58
2023/11/09 18:07:26;;;;;;;32.10;6.00;;;;;;;10.77;55.17;98542.45;234107;209;149306;-59
2023/11/09 18:12:29;;;;;;;22.70;6.10;;;;;;;10.69;55.26;98540.56;234171;213;138741;-59
2023/11/09 18:17:34;;;;;;;27.00;6.80;;;;;;;10.64;54.80;98533.80;234073;213;138092;-59
2023/11/09 18:22:38;;;;;;;38.20;7.80;;;;;;;10.60;55.05;98531.26;234235;214;150122;-58
2023/11/09 18:27:41;;;;;;;32.10;6.50;;;;;;;10.53;55.62;98532.41;234096;214;138977;-58
2023/11/09 18:32:45;;;;;;;42.00;8.20;;;;;;;10.46;55.36;98533.80;233924;210;139040;-62
2023/11/09 18:37:48;;;;;;;41.50;9.30;;;;;;;10.47;57.28;98532.34;234136;215;150221;-59
2023/11/09 18:42:51;;;;;;;36.90;8.10;;;;;;;10.44;56.70;98534.26;233991;214;139990;-58
2023/11/09 18:47:55;;;;;;;29.50;7.20;;;;;;;10.34;56.56;98530.00;234034;213;137429;-59
2023/11/09 18:52:58;;;;;;;34.20;8.60;;;;;;;10.26;57.32;98524.73;234113;214;150322;-59
2023/11/09 18:58:03;;;;;;;33.70;7.70;;;;;;;10.15;56.84;98522.28;234160;212;138783;-59
2023/11/09 19:03:07;;;;;;;43.90;14.90;;;;;;;10.13;56.85;98515.00;234047;208;138604;-59
2023/11/09 19:08:19;;;;;;;31.40;8.10;;;;;;;10.10;57.29;98508.98;234040;213;149304;-58
2023/11/09 19:13:23;;;;;;;27.10;8.20;;;;;;;10.08;57.49;98504.33;234153;213;139511;-58
2023/11/09 19:18:26;;;;;;;30.40;8.30;;;;;;;10.05;57.72;98497.98;234162;216;137358;-57
2023/11/09 19:23:30;;;;;;;44.80;15.10;;;;;;;10.01;57.44;98505.89;234059;214;149308;-57
2023/11/09 19:28:33;;;;;;;28.00;9.70;;;;;;;10.00;57.28;98507.34;234153;209;138703;-58
2023/11/09 19:33:37;;;;;;;47.40;15.30;;;;;;;9.98;57.88;98506.62;233913;209;138681;-59
2023/11/09 19:38:41;;;;;;;38.40;10.20;;;;;;;9.96;57.76;98499.79;234018;212;149127;-59
2023/11/09 19:43:44;;;;;;;24.50;9.50;;;;;;;9.88;57.64;98501.60;234145;213;139909;-57
2023/11/09 19:48:47;;;;;;;27.60;9.50;;;;;;;9.81;57.72;98503.52;234133;213;138484;-58
2023/11/09 19:53:51;;;;;;;36.10;9.80;;;;;;;9.73;57.81;98504.75;234152;213;149414;-58
2023/11/09 19:58:55;;;;;;;33.60;13.70;;;;;;;9.68;57.80;98511.47;234275;208;139287;-58
2023/11/09 20:03:58;;;;;;;37.20;11.60;;;;;;;9.64;58.40;98509.05;234200;213;142340;-57
2023/11/09 20:09:04;;;;;;;40.10;11.30;;;;;;;9.58;58.93;98511.94;234166;213;149657;-58
2023/11/09 20:14:09;;;;;;;50.20;11.40;;;;;;;9.48;58.58;98510.64;233987;213;139974;-56
2023/11/09 20:19:12;;;;;;;40.00;10.70;;;;;;;9.36;58.69;98516.43;234165;214;139510;-56
2023/11/09 20:24:15;;;;;;;29.10;10.30;;;;;;;9.31;58.88;98507.51;234207;213;149946;-56
2023/11/09 20:29:18;;;;;;;22.00;9.60;;;;;;;9.32;59.02;98502.35;234215;213;140055;-56
2023/11/09 20:34:22;;;;;;;33.70;11.50;;;;;;;9.33;58.75;98494.66;234246;214;140299;-55
2023/11/09 20:39:25;;;;;;;30.70;10.70;;;;;;;9.24;58.86;98481.98;234157;214;149995;-56
2023/11/09 20:44:28;;;;;;;23.70;9.50;;;;;;;9.20;59.35;98477.46;234274;215;138916;-55
2023/11/09 20:49:32;;;;;;;26.20;10.50;;;;;;;9.20;60.09;98470.88;234119;209;138193;-56
2023/11/09 20:54:35;;;;;;;24.00;10.40;;;;;;;9.18;60.24;98464.98;234099;210;151094;-54
2023/11/09 20:59:38;;;;;;;26.80;10.70;;;;;;;9.15;60.49;98465.05;234121;213;138913;-55
2023/11/09 21:04:42;;;;;;;27.70;10.80;;;;;;;9.10;60.63;98461.29;234256;215;139099;-56
2023/11/09 21:09:45;;;;;;;25.90;10.50;;;;;;;9.07;60.37;98461.70;234145;214;149531;-56
2023/11/09 21:14:48;;;;;;;24.70;10.80;;;;;;;8.98;60.23;98459.25;233961;208;140017;-51
2023/11/09 21:19:52;;;;;;;31.10;11.70;;;;;;;8.94;60.66;98450.64;234175;213;138948;-55
2023/11/09 21:24:58;;;;;;;33.50;12.10;;;;;;;8.92;60.79;98452.76;234110;213;150466;-57
2023/11/09 21:30:02;;;;;;;35.60;12.20;;;;;;;8.87;60.58;98441.05;234245;209;140440;-56
2023/11/09 21:35:06;;;;;;;38.80;12.70;;;;;;;8.87;60.73;98428.96;233790;213;139100;-55
2023/11/09 21:40:14;;;;;;;37.90;13.60;;;;;;;8.90;61.25;98424.94;233935;213;149419;-56
2023/11/09 21:45:18;;;;;;;32.70;11.30;;;;;;;8.93;61.49;98420.61;234207;208;139173;-56
2023/11/09 21:50:22;;;;;;;29.80;11.50;;;;;;;8.96;61.92;98412.66;233983;213;137572;-57
2023/11/09 21:55:27;;;;;;;27.40;13.10;;;;;;;8.95;61.80;98417.83;234249;213;150233;-57
2023/11/09 22:00:31;;;;;;;29.70;12.80;;;;;;;8.97;61.72;98415.10;233801;208;139937;-56
2023/11/09 22:05:34;;;;;;;28.50;11.90;;;;;;;9.06;61.86;98416.48;233723;213;137641;-57
2023/11/09 22:10:37;;;;;;;24.10;12.80;;;;;;;9.05;61.61;98411.54;234347;213;149185;-57
2023/11/09 22:15:41;;;;;;;26.30;11.50;;;;;;;9.03;61.64;98407.98;234180;214;138384;-56
2023/11/09 22:20:44;;;;;;;27.60;12.10;;;;;;;9.05;61.98;98398.63;234303;212;138385;-56
2023/11/09 22:25:47;;;;;;;27.60;12.10;;;;;;;9.09;61.70;98397.30;234196;214;152382;-56
2023/11/09 22:30:51;;;;;;;24.80;11.40;;;;;;;9.15;62.01;98390.88;234178;214;138963;-55
2023/11/09 22:35:54;;;;;;;28.20;12.00;;;;;;;9.20;61.36;98382.73;234231;213;138185;-57
2023/11/09 22:40:58;;;;;;;22.80;10.60;;;;;;;9.27;61.74;98381.77;234461;216;149272;-56
2023/11/09 22:46:01;;;;;;;28.80;12.80;;;;;;;9.35;61.62;98375.57;234324;214;275690;-57
2023/11/09 22:51:05;;;;;;;23.00;11.20;;;;;;;9.38;61.22;98375.71;234302;213;138749;-55
2023/11/09 22:56:08;;;;;;;26.00;11.50;;;;;;;9.41;60.97;98373.77;234125;209;150611;-56
2023/11/09 23:01:11;;;;;;;21.90;11.00;;;;;;;9.42;61.12;98376.35;234089;213;139520;-56
2023/11/09 23:06:15;;;;;;;26.40;11.40;;;;;;;9.49;61.48;98378.65;234037;215;138438;-56
2023/11/09 23:11:18;;;;;;;19.90;9.80;;;;;;;9.54;61.16;98382.08;234157;209;149380;-56
2023/11/09 23:16:25;;;;;;;16.60;9.40;;;;;;;9.57;60.97;98387.71;234171;214;139808;-55
2023/11/09 23:21:28;;;;;;;19.40;9.50;;;;;;;9.58;60.83;98378.07;234117;215;138698;-56
2023/11/09 23:26:32;;;;;;;16.10;9.20;;;;;;;9.58;60.90;98384.06;234124;209;149151;-57
2023/11/09 23:31:35;;;;;;;18.10;9.60;;;;;;;9.61;61.02;98372.92;234061;213;138788;-55
2023/11/09 23:36:39;;;;;;;17.80;10.20;;;;;;;9.63;61.05;98374.71;234162;214;138553;-54
2023/11/09 23:41:42;;;;;;;16.10;8.90;;;;;;;9.62;61.02;98368.77;234163;214;149341;-56
2023/11/09 23:46:45;;;;;;;15.40;9.80;;;;;;;9.60;60.95;98362.15;234223;209;139844;-55
2023/11/09 23:51:49;;;;;;;19.60;9.40;;;;;;;9.62;61.12;98360.09;234145;214;138531;-56
2023/11/09 23:56:53;;;;;;;19.60;9.30;;;;;;;9.63;61.41;98358.02;233697;213;149055;-58
